KJAN/JAN METAR and TAF weather

Enter ICAO airport designator
Station Type Date Time Source
KJAN METAR 2020/01/17 13:54 UTC NOAA

KJAN 171354Z 06004KT 10SM BKN085 BKN100 10/02 A3042 RMK AO2 SLP301 T01000017


Station Type Date Time Source
KJAN Decoded METAR 2020/01/17 13:54 UTC NOAA

Jackson, Jackson International Airport, MS, United States (KJAN) 32-19-11N 090-04-39W 89M
Jan 17, 2020 - 08:54 AM EST / 2020.01.17 1354 UTC
Wind: from the ENE (060 degrees) at 5 MPH (4 KT):0
Visibility: 10 mile(s):0
Sky conditions: mostly cloudy
Temperature: 50.0 F (10.0 C)
Dew Point: 35.1 F (1.7 C)
Relative Humidity: 56%
Pressure (altimeter): 30.42 in. Hg (1030 hPa)
ob: KJAN 171354Z 06004KT 10SM BKN085 BKN100 10/02 A3042 RMK AO2 SLP301 T01000017
cycle: 14

Station Type Date Time Source
KJAN TAF 2020/01/17 12:24 UTC NOAA

KJAN 171123Z 1712/1812 08010KT P6SM BKN100
FM180600 15009KT P6SM BKN025

Example: see airport list